sensor_id;sensor_type;location;lat;lon;timestamp;P1;durP1;ratioP1;P2;durP2;ratioP2
35276;SDS011;21401;50.878;8.050;2022-12-07T01:47:22;47.28;;;21.90;;
35276;SDS011;21401;50.878;8.050;2022-12-07T12:02:37;14.85;;;6.45;;
35276;SDS011;21401;50.878;8.050;2022-12-07T15:24:58;12.88;;;6.10;;
35276;SDS011;21401;50.878;8.050;2022-12-07T15:27:49;20.05;;;9.73;;
35276;SDS011;21401;50.878;8.050;2022-12-07T15:31:15;66.13;;;25.40;;
35276;SDS011;21401;50.878;8.050;2022-12-07T15:34:27;32.47;;;14.57;;
35276;SDS011;21401;50.878;8.050;2022-12-07T15:37:58;17.02;;;9.63;;
35276;SDS011;21401;50.878;8.050;2022-12-07T15:40:39;20.90;;;9.10;;
35276;SDS011;21401;50.878;8.050;2022-12-07T15:44:17;16.17;;;9.32;;
35276;SDS011;21401;50.878;8.050;2022-12-07T15:47:10;16.17;;;7.90;;
35276;SDS011;21401;50.878;8.050;2022-12-07T15:50:46;11.85;;;7.78;;
35276;SDS011;21401;50.878;8.050;2022-12-07T15:57:19;21.67;;;8.60;;
35276;SDS011;21401;50.878;8.050;2022-12-07T16:00:47;14.15;;;9.32;;
35276;SDS011;21401;50.878;8.050;2022-12-07T16:04:17;23.63;;;9.20;;
35276;SDS011;21401;50.878;8.050;2022-12-07T16:11:20;26.85;;;11.80;;
35276;SDS011;21401;50.878;8.050;2022-12-07T16:14:42;18.45;;;11.60;;
35276;SDS011;21401;50.878;8.050;2022-12-07T16:18:10;19.98;;;10.07;;
35276;SDS011;21401;50.878;8.050;2022-12-07T16:21:29;25.02;;;10.63;;
35276;SDS011;21401;50.878;8.050;2022-12-07T16:24:42;18.27;;;10.10;;
35276;SDS011;21401;50.878;8.050;2022-12-07T16:27:53;21.23;;;9.93;;
35276;SDS011;21401;50.878;8.050;2022-12-07T16:34:56;16.67;;;10.30;;
35276;SDS011;21401;50.878;8.050;2022-12-07T16:38:42;20.55;;;10.70;;
35276;SDS011;21401;50.878;8.050;2022-12-07T16:42:25;20.30;;;11.48;;
35276;SDS011;21401;50.878;8.050;2022-12-07T16:45:53;23.95;;;11.10;;
35276;SDS011;21401;50.878;8.050;2022-12-07T16:49:12;21.10;;;11.13;;
35276;SDS011;21401;50.878;8.050;2022-12-07T17:03:43;23.27;;;13.75;;
35276;SDS011;21401;50.878;8.050;2022-12-07T17:17:45;22.55;;;14.32;;
35276;SDS011;21401;50.878;8.050;2022-12-07T17:25:02;27.92;;;15.20;;
35276;SDS011;21401;50.878;8.050;2022-12-07T17:28:37;33.25;;;14.52;;
35276;SDS011;21401;50.878;8.050;2022-12-07T17:32:19;27.05;;;15.10;;
35276;SDS011;21401;50.878;8.050;2022-12-07T17:42:58;29.70;;;16.15;;
35276;SDS011;21401;50.878;8.050;2022-12-07T17:46:26;43.83;;;21.13;;
35276;SDS011;21401;50.878;8.050;2022-12-07T17:49:53;36.55;;;20.77;;
35276;SDS011;21401;50.878;8.050;2022-12-07T17:53:17;35.50;;;20.60;;
35276;SDS011;21401;50.878;8.050;2022-12-07T17:56:50;33.95;;;18.98;;
35276;SDS011;21401;50.878;8.050;2022-12-07T18:00:16;40.20;;;18.90;;
35276;SDS011;21401;50.878;8.050;2022-12-07T18:03:47;35.60;;;18.35;;
35276;SDS011;21401;50.878;8.050;2022-12-07T18:06:57;33.55;;;18.58;;
35276;SDS011;21401;50.878;8.050;2022-12-07T18:10:27;31.33;;;19.83;;
35276;SDS011;21401;50.878;8.050;2022-12-07T18:13:34;31.67;;;17.13;;
35276;SDS011;21401;50.878;8.050;2022-12-07T18:17:07;35.88;;;19.05;;
35276;SDS011;21401;50.878;8.050;2022-12-07T18:20:28;37.17;;;21.45;;
35276;SDS011;21401;50.878;8.050;2022-12-07T18:23:43;36.65;;;18.33;;
35276;SDS011;21401;50.878;8.050;2022-12-07T18:27:00;33.92;;;20.02;;
35276;SDS011;21401;50.878;8.050;2022-12-07T18:30:29;29.90;;;18.77;;
35276;SDS011;21401;50.878;8.050;2022-12-07T18:33:46;30.15;;;17.90;;
35276;SDS011;21401;50.878;8.050;2022-12-07T18:37:17;29.77;;;18.42;;
35276;SDS011;21401;50.878;8.050;2022-12-07T18:40:44;30.98;;;17.80;;
35276;SDS011;21401;50.878;8.050;2022-12-07T18:44:16;28.30;;;15.40;;
35276;SDS011;21401;50.878;8.050;2022-12-07T18:47:46;23.98;;;14.82;;
35276;SDS011;21401;50.878;8.050;2022-12-07T18:51:21;29.95;;;16.55;;
35276;SDS011;21401;50.878;8.050;2022-12-07T18:54:46;30.70;;;16.83;;
35276;SDS011;21401;50.878;8.050;2022-12-07T18:58:04;31.02;;;16.88;;
35276;SDS011;21401;50.878;8.050;2022-12-07T19:01:29;30.20;;;16.55;;
35276;SDS011;21401;50.878;8.050;2022-12-07T19:04:38;40.92;;;17.85;;
35276;SDS011;21401;50.878;8.050;2022-12-07T19:08:09;30.90;;;18.45;;
35276;SDS011;21401;50.878;8.050;2022-12-07T19:11:34;29.70;;;17.10;;
35276;SDS011;21401;50.878;8.050;2022-12-07T19:14:50;27.77;;;16.73;;
35276;SDS011;21401;50.878;8.050;2022-12-07T19:18:14;28.13;;;16.20;;
35276;SDS011;21401;50.878;8.050;2022-12-07T19:21:42;28.85;;;18.30;;
35276;SDS011;21401;50.878;8.050;2022-12-07T19:25:13;30.17;;;16.45;;
35276;SDS011;21401;50.878;8.050;2022-12-07T19:32:03;28.35;;;17.30;;
35276;SDS011;21401;50.878;8.050;2022-12-07T19:35:29;30.95;;;18.58;;
35276;SDS011;21401;50.878;8.050;2022-12-07T19:39:01;33.92;;;17.35;;
35276;SDS011;21401;50.878;8.050;2022-12-07T19:42:33;39.78;;;19.17;;
35276;SDS011;21401;50.878;8.050;2022-12-07T19:46:04;34.13;;;19.35;;
35276;SDS011;21401;50.878;8.050;2022-12-07T19:49:38;45.65;;;22.83;;
35276;SDS011;21401;50.878;8.050;2022-12-07T19:53:16;66.95;;;28.40;;
35276;SDS011;21401;50.878;8.050;2022-12-07T19:56:55;67.03;;;27.85;;
35276;SDS011;21401;50.878;8.050;2022-12-07T20:00:24;31.65;;;19.83;;
35276;SDS011;21401;50.878;8.050;2022-12-07T20:03:55;27.42;;;16.55;;
35276;SDS011;21401;50.878;8.050;2022-12-07T20:07:10;25.55;;;15.98;;
35276;SDS011;21401;50.878;8.050;2022-12-07T20:10:38;30.40;;;15.10;;
35276;SDS011;21401;50.878;8.050;2022-12-07T20:14:07;26.05;;;16.60;;
35276;SDS011;21401;50.878;8.050;2022-12-07T20:17:06;28.67;;;14.68;;
35276;SDS011;21401;50.878;8.050;2022-12-07T20:20:30;22.05;;;13.75;;
35276;SDS011;21401;50.878;8.050;2022-12-07T20:23:43;22.83;;;13.00;;
35276;SDS011;21401;50.878;8.050;2022-12-07T20:27:09;22.00;;;11.85;;
35276;SDS011;21401;50.878;8.050;2022-12-07T20:33:27;22.25;;;13.10;;
35276;SDS011;21401;50.878;8.050;2022-12-07T20:36:35;23.20;;;13.10;;
35276;SDS011;21401;50.878;8.050;2022-12-07T20:40:00;24.42;;;14.80;;
35276;SDS011;21401;50.878;8.050;2022-12-07T20:42:47;23.85;;;15.52;;
35276;SDS011;21401;50.878;8.050;2022-12-07T20:46:01;35.45;;;20.77;;
35276;SDS011;21401;50.878;8.050;2022-12-07T20:48:39;36.45;;;22.05;;
35276;SDS011;21401;50.878;8.050;2022-12-07T20:51:06;25.20;;;15.85;;
35276;SDS011;21401;50.878;8.050;2022-12-07T20:53:40;26.50;;;15.43;;
35276;SDS011;21401;50.878;8.050;2022-12-07T20:56:07;29.45;;;17.83;;
35276;SDS011;21401;50.878;8.050;2022-12-07T20:58:50;25.17;;;13.15;;
35276;SDS011;21401;50.878;8.050;2022-12-07T21:01:20;25.02;;;13.93;;
35276;SDS011;21401;50.878;8.050;2022-12-07T21:03:58;24.98;;;14.40;;
35276;SDS011;21401;50.878;8.050;2022-12-07T21:06:25;23.00;;;13.65;;
35276;SDS011;21401;50.878;8.050;2022-12-07T21:08:53;22.13;;;14.82;;
35276;SDS011;21401;50.878;8.050;2022-12-07T21:11:21;25.58;;;14.75;;
35276;SDS011;21401;50.878;8.050;2022-12-07T21:13:53;23.67;;;14.60;;
35276;SDS011;21401;50.878;8.050;2022-12-07T21:16:20;16.58;;;11.10;;
35276;SDS011;21401;50.878;8.050;2022-12-07T21:18:52;21.23;;;12.93;;
35276;SDS011;21401;50.878;8.050;2022-12-07T21:21:19;20.50;;;12.82;;
35276;SDS011;21401;50.878;8.050;2022-12-07T21:23:46;17.85;;;11.82;;
35276;SDS011;21401;50.878;8.050;2022-12-07T21:26:17;17.63;;;11.65;;
35276;SDS011;21401;50.878;8.050;2022-12-07T21:28:44;18.60;;;11.40;;
35276;SDS011;21401;50.878;8.050;2022-12-07T21:31:14;17.80;;;11.40;;
35276;SDS011;21401;50.878;8.050;2022-12-07T21:33:41;17.38;;;11.05;;
35276;SDS011;21401;50.878;8.050;2022-12-07T21:36:11;18.35;;;11.27;;
35276;SDS011;21401;50.878;8.050;2022-12-07T21:38:42;16.25;;;10.38;;
35276;SDS011;21401;50.878;8.050;2022-12-07T21:41:12;17.98;;;10.82;;
35276;SDS011;21401;50.878;8.050;2022-12-07T21:43:39;16.92;;;10.25;;
35276;SDS011;21401;50.878;8.050;2022-12-07T21:46:09;23.95;;;11.77;;
35276;SDS011;21401;50.878;8.050;2022-12-07T21:48:35;15.88;;;10.13;;
35276;SDS011;21401;50.878;8.050;2022-12-07T21:51:02;17.05;;;10.55;;
35276;SDS011;21401;50.878;8.050;2022-12-07T21:53:36;17.17;;;10.75;;
35276;SDS011;21401;50.878;8.050;2022-12-07T21:56:04;17.70;;;10.82;;
35276;SDS011;21401;50.878;8.050;2022-12-07T21:58:36;18.92;;;10.80;;
35276;SDS011;21401;50.878;8.050;2022-12-07T22:01:02;22.08;;;12.30;;
35276;SDS011;21401;50.878;8.050;2022-12-07T22:03:29;18.85;;;10.63;;
35276;SDS011;21401;50.878;8.050;2022-12-07T22:05:59;23.17;;;12.00;;
35276;SDS011;21401;50.878;8.050;2022-12-07T22:08:26;26.55;;;16.77;;
35276;SDS011;21401;50.878;8.050;2022-12-07T22:10:52;26.45;;;15.32;;
35276;SDS011;21401;50.878;8.050;2022-12-07T22:13:19;23.75;;;15.02;;
35276;SDS011;21401;50.878;8.050;2022-12-07T22:15:45;23.33;;;15.70;;
35276;SDS011;21401;50.878;8.050;2022-12-07T22:18:12;22.40;;;14.63;;
35276;SDS011;21401;50.878;8.050;2022-12-07T22:20:38;26.05;;;16.65;;
35276;SDS011;21401;50.878;8.050;2022-12-07T22:23:05;31.98;;;18.50;;
35276;SDS011;21401;50.878;8.050;2022-12-07T22:25:31;28.08;;;15.45;;
35276;SDS011;21401;50.878;8.050;2022-12-07T22:27:58;30.25;;;16.02;;
35276;SDS011;21401;50.878;8.050;2022-12-07T22:30:25;28.83;;;16.58;;
35276;SDS011;21401;50.878;8.050;2022-12-07T22:32:55;26.92;;;16.85;;
35276;SDS011;21401;50.878;8.050;2022-12-07T22:35:21;28.20;;;16.52;;
35276;SDS011;21401;50.878;8.050;2022-12-07T22:37:48;24.05;;;13.82;;
35276;SDS011;21401;50.878;8.050;2022-12-07T22:40:14;28.52;;;18.00;;
35276;SDS011;21401;50.878;8.050;2022-12-07T22:42:44;39.42;;;19.23;;
35276;SDS011;21401;50.878;8.050;2022-12-07T22:45:13;31.33;;;17.38;;
35276;SDS011;21401;50.878;8.050;2022-12-07T22:47:44;31.53;;;18.83;;
35276;SDS011;21401;50.878;8.050;2022-12-07T22:50:11;40.70;;;22.25;;
35276;SDS011;21401;50.878;8.050;2022-12-07T22:52:38;34.22;;;19.88;;
35276;SDS011;21401;50.878;8.050;2022-12-07T22:55:05;37.03;;;21.13;;
35276;SDS011;21401;50.878;8.050;2022-12-07T22:57:35;40.45;;;21.95;;
35276;SDS011;21401;50.878;8.050;2022-12-07T23:00:02;40.85;;;22.40;;
35276;SDS011;21401;50.878;8.050;2022-12-07T23:02:32;45.13;;;22.98;;
35276;SDS011;21401;50.878;8.050;2022-12-07T23:04:58;44.40;;;24.70;;
35276;SDS011;21401;50.878;8.050;2022-12-07T23:07:29;45.65;;;23.90;;
35276;SDS011;21401;50.878;8.050;2022-12-07T23:09:57;45.95;;;24.60;;
35276;SDS011;21401;50.878;8.050;2022-12-07T23:12:24;40.30;;;24.27;;
35276;SDS011;21401;50.878;8.050;2022-12-07T23:15:09;46.10;;;24.75;;
35276;SDS011;21401;50.878;8.050;2022-12-07T23:17:36;48.00;;;25.52;;
35276;SDS011;21401;50.878;8.050;2022-12-07T23:20:03;37.13;;;23.05;;
35276;SDS011;21401;50.878;8.050;2022-12-07T23:22:29;45.92;;;25.23;;
35276;SDS011;21401;50.878;8.050;2022-12-07T23:24:58;45.03;;;24.50;;
35276;SDS011;21401;50.878;8.050;2022-12-07T23:27:32;39.58;;;22.80;;
35276;SDS011;21401;50.878;8.050;2022-12-07T23:29:59;40.45;;;23.63;;
35276;SDS011;21401;50.878;8.050;2022-12-07T23:32:24;47.38;;;23.77;;
35276;SDS011;21401;50.878;8.050;2022-12-07T23:34:50;45.42;;;22.50;;
35276;SDS011;21401;50.878;8.050;2022-12-07T23:37:17;44.78;;;24.77;;
35276;SDS011;21401;50.878;8.050;2022-12-07T23:39:43;37.30;;;22.67;;
35276;SDS011;21401;50.878;8.050;2022-12-07T23:42:10;48.72;;;24.55;;
35276;SDS011;21401;50.878;8.050;2022-12-07T23:44:36;52.08;;;26.55;;
35276;SDS011;21401;50.878;8.050;2022-12-07T23:47:02;48.22;;;24.80;;
35276;SDS011;21401;50.878;8.050;2022-12-07T23:49:30;38.55;;;22.33;;
35276;SDS011;21401;50.878;8.050;2022-12-07T23:51:56;48.95;;;23.42;;
35276;SDS011;21401;50.878;8.050;2022-12-07T23:54:25;46.63;;;23.90;;
35276;SDS011;21401;50.878;8.050;2022-12-07T23:56:51;42.70;;;22.88;;
35276;SDS011;21401;50.878;8.050;2022-12-07T23:59:17;45.85;;;23.27;;
